sensor_id;sensor_type;location;lat;lon;timestamp;temperature;humidity
44431;DHT22;30135;47.866;-4.222;2022-09-20T00:01:07;16.00;78.20
44431;DHT22;30135;47.866;-4.222;2022-09-20T00:03:36;16.00;78.30
44431;DHT22;30135;47.866;-4.222;2022-09-20T00:06:05;16.00;78.30
44431;DHT22;30135;47.866;-4.222;2022-09-20T00:08:34;15.90;78.30
44431;DHT22;30135;47.866;-4.222;2022-09-20T00:11:04;15.90;78.40
44431;DHT22;30135;47.866;-4.222;2022-09-20T00:13:35;15.80;78.40
44431;DHT22;30135;47.866;-4.222;2022-09-20T00:16:14;15.80;78.40
44431;DHT22;30135;47.866;-4.222;2022-09-20T00:18:55;15.80;78.50
44431;DHT22;30135;47.866;-4.222;2022-09-20T00:21:26;15.80;78.50
44431;DHT22;30135;47.866;-4.222;2022-09-20T00:23:53;15.80;78.60
44431;DHT22;30135;47.866;-4.222;2022-09-20T00:26:21;15.70;78.60
44431;DHT22;30135;47.866;-4.222;2022-09-20T00:28:47;15.70;79.40
44431;DHT22;30135;47.866;-4.222;2022-09-20T00:31:14;15.60;78.70
44431;DHT22;30135;47.866;-4.222;2022-09-20T00:33:40;15.70;78.80
44431;DHT22;30135;47.866;-4.222;2022-09-20T00:36:25;15.60;78.80
44431;DHT22;30135;47.866;-4.222;2022-09-20T00:38:56;15.60;78.80
44431;DHT22;30135;47.866;-4.222;2022-09-20T00:41:24;15.60;78.80
44431;DHT22;30135;47.866;-4.222;2022-09-20T00:43:50;15.60;78.90
44431;DHT22;30135;47.866;-4.222;2022-09-20T00:46:25;15.50;78.80
44431;DHT22;30135;47.866;-4.222;2022-09-20T00:49:12;15.50;78.90
44431;DHT22;30135;47.866;-4.222;2022-09-20T00:51:42;15.50;79.00
44431;DHT22;30135;47.866;-4.222;2022-09-20T00:54:12;15.40;79.00
44431;DHT22;30135;47.866;-4.222;2022-09-20T00:56:42;15.40;79.10
44431;DHT22;30135;47.866;-4.222;2022-09-20T00:59:29;15.40;79.20
44431;DHT22;30135;47.866;-4.222;2022-09-20T01:02:11;15.30;79.20
44431;DHT22;30135;47.866;-4.222;2022-09-20T01:04:39;15.30;79.30
44431;DHT22;30135;47.866;-4.222;2022-09-20T01:07:08;15.30;79.40
44431;DHT22;30135;47.866;-4.222;2022-09-20T01:09:36;15.30;79.50
44431;DHT22;30135;47.866;-4.222;2022-09-20T01:12:05;15.30;79.60
44431;DHT22;30135;47.866;-4.222;2022-09-20T01:14:38;15.30;79.80
44431;DHT22;30135;47.866;-4.222;2022-09-20T01:17:05;15.20;79.80
44431;DHT22;30135;47.866;-4.222;2022-09-20T01:22:37;15.20;80.00
44431;DHT22;30135;47.866;-4.222;2022-09-20T01:25:28;15.20;80.10
44431;DHT22;30135;47.866;-4.222;2022-09-20T01:28:04;15.20;80.20
44431;DHT22;30135;47.866;-4.222;2022-09-20T01:30:44;15.20;80.10
44431;DHT22;30135;47.866;-4.222;2022-09-20T01:33:46;15.20;80.20
44431;DHT22;30135;47.866;-4.222;2022-09-20T01:36:32;15.10;80.10
44431;DHT22;30135;47.866;-4.222;2022-09-20T01:42:04;15.10;80.10
44431;DHT22;30135;47.866;-4.222;2022-09-20T01:50:29;15.00;80.20
44431;DHT22;30135;47.866;-4.222;2022-09-20T01:55:44;15.00;80.20
44431;DHT22;30135;47.866;-4.222;2022-09-20T02:19:33;14.70;80.50
44431;DHT22;30135;47.866;-4.222;2022-09-20T02:34:15;14.70;81.30
44431;DHT22;30135;47.866;-4.222;2022-09-20T02:36:46;14.70;81.30
44431;DHT22;30135;47.866;-4.222;2022-09-20T02:42:35;14.60;81.60
44431;DHT22;30135;47.866;-4.222;2022-09-20T02:48:04;14.60;81.80
44431;DHT22;30135;47.866;-4.222;2022-09-20T02:50:59;14.60;82.00
44431;DHT22;30135;47.866;-4.222;2022-09-20T02:56:44;14.60;82.20
44431;DHT22;30135;47.866;-4.222;2022-09-20T03:02:06;14.60;82.70
44431;DHT22;30135;47.866;-4.222;2022-09-20T03:14:07;14.70;83.30
44431;DHT22;30135;47.866;-4.222;2022-09-20T03:19:42;14.70;83.60
44431;DHT22;30135;47.866;-4.222;2022-09-20T03:30:57;14.70;83.80
44431;DHT22;30135;47.866;-4.222;2022-09-20T03:42:28;14.70;84.00
44431;DHT22;30135;47.866;-4.222;2022-09-20T03:54:00;14.70;84.30
44431;DHT22;30135;47.866;-4.222;2022-09-20T04:05:06;14.60;84.40
44431;DHT22;30135;47.866;-4.222;2022-09-20T04:07:59;14.60;84.50
44431;DHT22;30135;47.866;-4.222;2022-09-20T04:11:02;14.60;84.60
44431;DHT22;30135;47.866;-4.222;2022-09-20T04:13:54;14.60;84.70
44431;DHT22;30135;47.866;-4.222;2022-09-20T04:20:06;14.60;85.30
44431;DHT22;30135;47.866;-4.222;2022-09-20T04:22:40;14.60;85.00
44431;DHT22;30135;47.866;-4.222;2022-09-20T04:25:22;14.60;85.00
44431;DHT22;30135;47.866;-4.222;2022-09-20T04:27:55;14.60;85.10
44431;DHT22;30135;47.866;-4.222;2022-09-20T04:30:26;14.60;85.10
44431;DHT22;30135;47.866;-4.222;2022-09-20T04:38:33;14.60;85.00
44431;DHT22;30135;47.866;-4.222;2022-09-20T04:41:10;14.60;85.00
44431;DHT22;30135;47.866;-4.222;2022-09-20T04:56:00;14.50;85.00
44431;DHT22;30135;47.866;-4.222;2022-09-20T04:59:04;14.50;84.90
44431;DHT22;30135;47.866;-4.222;2022-09-20T05:11:29;14.50;85.90
44431;DHT22;30135;47.866;-4.222;2022-09-20T05:29:55;14.40;85.20
44431;DHT22;30135;47.866;-4.222;2022-09-20T05:38:15;14.30;85.20
44431;DHT22;30135;47.866;-4.222;2022-09-20T05:58:27;14.30;85.40
44431;DHT22;30135;47.866;-4.222;2022-09-20T06:09:51;14.20;85.30
44431;DHT22;30135;47.866;-4.222;2022-09-20T06:16:00;14.20;85.30
44431;DHT22;30135;47.866;-4.222;2022-09-20T06:21:23;14.10;85.30
44431;DHT22;30135;47.866;-4.222;2022-09-20T06:23:59;14.10;85.30
44431;DHT22;30135;47.866;-4.222;2022-09-20T06:26:31;14.10;85.40
44431;DHT22;30135;47.866;-4.222;2022-09-20T06:29:02;14.10;85.50
44431;DHT22;30135;47.866;-4.222;2022-09-20T06:31:30;14.10;85.60
44431;DHT22;30135;47.866;-4.222;2022-09-20T06:33:58;14.10;85.60
44431;DHT22;30135;47.866;-4.222;2022-09-20T06:36:33;14.10;85.70
44431;DHT22;30135;47.866;-4.222;2022-09-20T06:42:16;14.10;85.80
44431;DHT22;30135;47.866;-4.222;2022-09-20T06:44:42;14.10;85.80
44431;DHT22;30135;47.866;-4.222;2022-09-20T06:47:09;14.10;85.80
44431;DHT22;30135;47.866;-4.222;2022-09-20T06:49:35;14.10;85.90
44431;DHT22;30135;47.866;-4.222;2022-09-20T06:52:05;14.10;86.00
44431;DHT22;30135;47.866;-4.222;2022-09-20T06:54:33;14.10;86.10
44431;DHT22;30135;47.866;-4.222;2022-09-20T06:57:02;14.10;86.20
44431;DHT22;30135;47.866;-4.222;2022-09-20T06:59:29;14.10;86.30
44431;DHT22;30135;47.866;-4.222;2022-09-20T07:01:55;14.10;86.30
44431;DHT22;30135;47.866;-4.222;2022-09-20T07:04:21;14.10;86.50
44431;DHT22;30135;47.866;-4.222;2022-09-20T07:06:51;14.10;86.60
44431;DHT22;30135;47.866;-4.222;2022-09-20T07:09:23;14.10;86.60
44431;DHT22;30135;47.866;-4.222;2022-09-20T07:11:51;14.10;86.70
44431;DHT22;30135;47.866;-4.222;2022-09-20T07:14:17;14.20;86.90
44431;DHT22;30135;47.866;-4.222;2022-09-20T07:16:43;14.20;86.90
44431;DHT22;30135;47.866;-4.222;2022-09-20T07:19:10;14.20;87.00
44431;DHT22;30135;47.866;-4.222;2022-09-20T07:21:36;14.20;87.10
44431;DHT22;30135;47.866;-4.222;2022-09-20T07:24:02;14.20;87.20
44431;DHT22;30135;47.866;-4.222;2022-09-20T07:26:29;14.30;87.30
44431;DHT22;30135;47.866;-4.222;2022-09-20T07:28:56;14.30;87.40
44431;DHT22;30135;47.866;-4.222;2022-09-20T07:31:25;14.30;87.50
44431;DHT22;30135;47.866;-4.222;2022-09-20T07:33:53;14.30;87.50
44431;DHT22;30135;47.866;-4.222;2022-09-20T07:36:19;14.30;87.50
44431;DHT22;30135;47.866;-4.222;2022-09-20T07:38:49;14.30;87.60
44431;DHT22;30135;47.866;-4.222;2022-09-20T07:41:18;14.40;87.80
44431;DHT22;30135;47.866;-4.222;2022-09-20T07:43:45;14.40;87.70
44431;DHT22;30135;47.866;-4.222;2022-09-20T07:46:11;14.40;87.80
44431;DHT22;30135;47.866;-4.222;2022-09-20T07:48:40;14.40;87.80
44431;DHT22;30135;47.866;-4.222;2022-09-20T07:51:12;14.40;87.80
44431;DHT22;30135;47.866;-4.222;2022-09-20T07:53:39;14.50;88.60
44431;DHT22;30135;47.866;-4.222;2022-09-20T07:58:37;14.50;87.70
44431;DHT22;30135;47.866;-4.222;2022-09-20T08:01:05;14.50;87.80
44431;DHT22;30135;47.866;-4.222;2022-09-20T08:03:33;14.60;87.80
44431;DHT22;30135;47.866;-4.222;2022-09-20T08:06:08;14.60;87.80
44431;DHT22;30135;47.866;-4.222;2022-09-20T08:08:39;14.60;87.60
44431;DHT22;30135;47.866;-4.222;2022-09-20T08:11:08;14.60;87.70
44431;DHT22;30135;47.866;-4.222;2022-09-20T08:13:36;14.70;88.10
44431;DHT22;30135;47.866;-4.222;2022-09-20T08:16:06;14.70;87.80
44431;DHT22;30135;47.866;-4.222;2022-09-20T08:18:34;14.70;88.30
44431;DHT22;30135;47.866;-4.222;2022-09-20T08:21:08;14.80;87.90
44431;DHT22;30135;47.866;-4.222;2022-09-20T08:23:39;14.80;87.70
44431;DHT22;30135;47.866;-4.222;2022-09-20T08:26:08;14.80;87.50
44431;DHT22;30135;47.866;-4.222;2022-09-20T08:28:39;14.90;87.50
44431;DHT22;30135;47.866;-4.222;2022-09-20T08:31:12;14.90;87.30
44431;DHT22;30135;47.866;-4.222;2022-09-20T08:33:40;15.00;87.50
44431;DHT22;30135;47.866;-4.222;2022-09-20T08:36:10;15.00;87.30
44431;DHT22;30135;47.866;-4.222;2022-09-20T08:38:38;15.10;87.10
44431;DHT22;30135;47.866;-4.222;2022-09-20T08:41:06;15.10;86.90
44431;DHT22;30135;47.866;-4.222;2022-09-20T08:43:41;15.20;86.70
44431;DHT22;30135;47.866;-4.222;2022-09-20T08:46:15;15.20;86.30
44431;DHT22;30135;47.866;-4.222;2022-09-20T08:48:43;15.30;86.00
44431;DHT22;30135;47.866;-4.222;2022-09-20T08:51:15;15.40;85.70
44431;DHT22;30135;47.866;-4.222;2022-09-20T08:53:47;15.40;85.20
44431;DHT22;30135;47.866;-4.222;2022-09-20T08:56:18;15.40;84.80
44431;DHT22;30135;47.866;-4.222;2022-09-20T08:58:45;15.50;84.40
44431;DHT22;30135;47.866;-4.222;2022-09-20T09:01:19;15.60;84.20
44431;DHT22;30135;47.866;-4.222;2022-09-20T09:03:51;15.60;83.80
44431;DHT22;30135;47.866;-4.222;2022-09-20T09:06:22;15.70;83.40
44431;DHT22;30135;47.866;-4.222;2022-09-20T09:08:49;15.70;83.00
44431;DHT22;30135;47.866;-4.222;2022-09-20T09:11:19;15.80;82.80
44431;DHT22;30135;47.866;-4.222;2022-09-20T09:14:05;15.80;82.50
44431;DHT22;30135;47.866;-4.222;2022-09-20T09:16:55;15.90;81.60
44431;DHT22;30135;47.866;-4.222;2022-09-20T09:19:28;15.90;81.80
44431;DHT22;30135;47.866;-4.222;2022-09-20T09:22:09;16.00;81.40
44431;DHT22;30135;47.866;-4.222;2022-09-20T09:24:36;16.10;81.30
44431;DHT22;30135;47.866;-4.222;2022-09-20T09:27:20;16.10;81.00
44431;DHT22;30135;47.866;-4.222;2022-09-20T09:29:50;16.20;80.50
44431;DHT22;30135;47.866;-4.222;2022-09-20T09:32:23;16.20;80.60
44431;DHT22;30135;47.866;-4.222;2022-09-20T09:34:53;16.20;80.30
44431;DHT22;30135;47.866;-4.222;2022-09-20T09:37:27;16.30;80.00
44431;DHT22;30135;47.866;-4.222;2022-09-20T09:40:16;16.40;79.70
44431;DHT22;30135;47.866;-4.222;2022-09-20T09:43:00;16.40;80.30
44431;DHT22;30135;47.866;-4.222;2022-09-20T09:45:30;16.50;79.10
44431;DHT22;30135;47.866;-4.222;2022-09-20T09:48:01;16.60;78.70
44431;DHT22;30135;47.866;-4.222;2022-09-20T09:50:30;16.60;79.10
44431;DHT22;30135;47.866;-4.222;2022-09-20T09:53:17;16.70;78.10
44431;DHT22;30135;47.866;-4.222;2022-09-20T09:55:52;16.70;77.40
44431;DHT22;30135;47.866;-4.222;2022-09-20T10:01:58;16.90;76.60
44431;DHT22;30135;47.866;-4.222;2022-09-20T10:05:04;17.00;76.50
44431;DHT22;30135;47.866;-4.222;2022-09-20T10:14:16;17.10;75.30
44431;DHT22;30135;47.866;-4.222;2022-09-20T10:16:54;17.20;74.30
44431;DHT22;30135;47.866;-4.222;2022-09-20T10:22:48;17.30;75.10
44431;DHT22;30135;47.866;-4.222;2022-09-20T10:36:55;17.60;72.00
44431;DHT22;30135;47.866;-4.222;2022-09-20T10:39:35;17.60;71.00
44431;DHT22;30135;47.866;-4.222;2022-09-20T10:42:53;17.60;71.00
44431;DHT22;30135;47.866;-4.222;2022-09-20T10:45:51;17.70;71.60
44431;DHT22;30135;47.866;-4.222;2022-09-20T10:48:41;17.80;70.80
44431;DHT22;30135;47.866;-4.222;2022-09-20T11:08:39;18.10;68.20
44431;DHT22;30135;47.866;-4.222;2022-09-20T11:11:12;18.10;68.70
44431;DHT22;30135;47.866;-4.222;2022-09-20T11:14:05;18.20;69.50
44431;DHT22;30135;47.866;-4.222;2022-09-20T11:16:51;18.30;68.70
44431;DHT22;30135;47.866;-4.222;2022-09-20T11:19:38;18.30;68.10
44431;DHT22;30135;47.866;-4.222;2022-09-20T11:22:17;18.40;67.80
44431;DHT22;30135;47.866;-4.222;2022-09-20T11:30:23;18.60;66.90
44431;DHT22;30135;47.866;-4.222;2022-09-20T11:35:31;18.70;66.70
44431;DHT22;30135;47.866;-4.222;2022-09-20T11:38:16;18.70;66.60
44431;DHT22;30135;47.866;-4.222;2022-09-20T11:43:40;18.90;66.50
44431;DHT22;30135;47.866;-4.222;2022-09-20T11:46:33;18.90;66.30
44431;DHT22;30135;47.866;-4.222;2022-09-20T11:49:14;19.00;65.60
44431;DHT22;30135;47.866;-4.222;2022-09-20T11:55:19;19.10;65.50
44431;DHT22;30135;47.866;-4.222;2022-09-20T11:58:10;19.20;65.40
44431;DHT22;30135;47.866;-4.222;2022-09-20T12:00:43;19.20;65.50
44431;DHT22;30135;47.866;-4.222;2022-09-20T12:06:04;19.30;64.90
44431;DHT22;30135;47.866;-4.222;2022-09-20T12:08:49;19.30;64.90
44431;DHT22;30135;47.866;-4.222;2022-09-20T12:11:28;19.40;64.40
44431;DHT22;30135;47.866;-4.222;2022-09-20T12:14:00;19.40;64.30
44431;DHT22;30135;47.866;-4.222;2022-09-20T12:16:46;19.50;63.80
44431;DHT22;30135;47.866;-4.222;2022-09-20T12:24:29;19.60;62.90
44431;DHT22;30135;47.866;-4.222;2022-09-20T12:26:57;19.60;62.50
44431;DHT22;30135;47.866;-4.222;2022-09-20T12:32:00;19.60;61.70
44431;DHT22;30135;47.866;-4.222;2022-09-20T12:34:35;19.60;61.70
44431;DHT22;30135;47.866;-4.222;2022-09-20T12:39:35;19.50;61.40
44431;DHT22;30135;47.866;-4.222;2022-09-20T12:42:29;19.50;61.30
44431;DHT22;30135;47.866;-4.222;2022-09-20T12:45:03;19.50;61.10
44431;DHT22;30135;47.866;-4.222;2022-09-20T12:47:34;19.50;61.40
44431;DHT22;30135;47.866;-4.222;2022-09-20T12:50:13;19.50;61.70
44431;DHT22;30135;47.866;-4.222;2022-09-20T12:53:00;19.50;61.60
44431;DHT22;30135;47.866;-4.222;2022-09-20T12:55:33;19.50;61.60
44431;DHT22;30135;47.866;-4.222;2022-09-20T13:14:28;19.60;61.20
44431;DHT22;30135;47.866;-4.222;2022-09-20T13:16:57;19.60;61.20
44431;DHT22;30135;47.866;-4.222;2022-09-20T13:19:32;19.60;61.50
44431;DHT22;30135;47.866;-4.222;2022-09-20T13:22:05;19.70;61.50
44431;DHT22;30135;47.866;-4.222;2022-09-20T13:24:41;19.70;61.80
44431;DHT22;30135;47.866;-4.222;2022-09-20T13:27:23;19.70;62.10
44431;DHT22;30135;47.866;-4.222;2022-09-20T13:29:52;19.70;62.10
44431;DHT22;30135;47.866;-4.222;2022-09-20T13:32:26;19.70;62.00
44431;DHT22;30135;47.866;-4.222;2022-09-20T13:42:48;19.70;62.10
44431;DHT22;30135;47.866;-4.222;2022-09-20T13:45:16;19.70;62.10
44431;DHT22;30135;47.866;-4.222;2022-09-20T13:47:47;19.80;62.10
44431;DHT22;30135;47.866;-4.222;2022-09-20T13:50:33;19.80;62.00
44431;DHT22;30135;47.866;-4.222;2022-09-20T13:53:02;19.80;61.70
44431;DHT22;30135;47.866;-4.222;2022-09-20T13:55:39;19.80;61.90
44431;DHT22;30135;47.866;-4.222;2022-09-20T13:58:15;19.80;61.90
44431;DHT22;30135;47.866;-4.222;2022-09-20T14:00:50;19.80;61.80
44431;DHT22;30135;47.866;-4.222;2022-09-20T14:03:19;19.80;61.50
44431;DHT22;30135;47.866;-4.222;2022-09-20T14:05:55;19.80;61.50
44431;DHT22;30135;47.866;-4.222;2022-09-20T14:08:56;19.90;61.30
44431;DHT22;30135;47.866;-4.222;2022-09-20T14:11:30;19.90;60.90
44431;DHT22;30135;47.866;-4.222;2022-09-20T14:14:00;19.90;61.10
44431;DHT22;30135;47.866;-4.222;2022-09-20T14:16:29;20.00;61.00
44431;DHT22;30135;47.866;-4.222;2022-09-20T14:18:58;20.00;60.90
44431;DHT22;30135;47.866;-4.222;2022-09-20T14:21:31;20.00;60.90
44431;DHT22;30135;47.866;-4.222;2022-09-20T14:24:05;20.00;60.90
44431;DHT22;30135;47.866;-4.222;2022-09-20T14:26:37;20.10;61.10
44431;DHT22;30135;47.866;-4.222;2022-09-20T14:32:23;20.10;61.50
44431;DHT22;30135;47.866;-4.222;2022-09-20T14:37:29;20.00;61.60
44431;DHT22;30135;47.866;-4.222;2022-09-20T14:40:02;20.00;61.80
44431;DHT22;30135;47.866;-4.222;2022-09-20T14:42:59;20.00;61.90
44431;DHT22;30135;47.866;-4.222;2022-09-20T14:45:30;20.00;62.30
44431;DHT22;30135;47.866;-4.222;2022-09-20T14:50:45;20.00;62.30
44431;DHT22;30135;47.866;-4.222;2022-09-20T14:53:45;20.10;62.20
44431;DHT22;30135;47.866;-4.222;2022-09-20T14:56:46;20.00;62.20
44431;DHT22;30135;47.866;-4.222;2022-09-20T14:59:22;20.00;62.50
44431;DHT22;30135;47.866;-4.222;2022-09-20T15:04:28;20.00;62.50
44431;DHT22;30135;47.866;-4.222;2022-09-20T15:07:03;20.10;62.50
44431;DHT22;30135;47.866;-4.222;2022-09-20T15:09:31;20.10;62.50
44431;DHT22;30135;47.866;-4.222;2022-09-20T15:11:59;20.10;62.60
44431;DHT22;30135;47.866;-4.222;2022-09-20T15:14:27;20.10;62.50
44431;DHT22;30135;47.866;-4.222;2022-09-20T15:16:53;20.10;62.40
44431;DHT22;30135;47.866;-4.222;2022-09-20T15:19:19;20.10;62.40
44431;DHT22;30135;47.866;-4.222;2022-09-20T15:21:45;20.10;62.20
44431;DHT22;30135;47.866;-4.222;2022-09-20T15:24:12;20.20;62.20
44431;DHT22;30135;47.866;-4.222;2022-09-20T15:26:38;20.20;62.10
44431;DHT22;30135;47.866;-4.222;2022-09-20T15:29:04;20.20;62.00
44431;DHT22;30135;47.866;-4.222;2022-09-20T15:31:33;20.20;62.00
44431;DHT22;30135;47.866;-4.222;2022-09-20T15:33:59;20.20;62.70
44431;DHT22;30135;47.866;-4.222;2022-09-20T15:36:27;20.20;61.90
44431;DHT22;30135;47.866;-4.222;2022-09-20T15:38:56;20.20;61.50
44431;DHT22;30135;47.866;-4.222;2022-09-20T15:41:22;20.20;61.30
44431;DHT22;30135;47.866;-4.222;2022-09-20T15:43:48;20.30;61.10
44431;DHT22;30135;47.866;-4.222;2022-09-20T15:46:22;20.30;60.70
44431;DHT22;30135;47.866;-4.222;2022-09-20T15:48:51;20.30;60.00
44431;DHT22;30135;47.866;-4.222;2022-09-20T15:51:21;20.30;60.10
44431;DHT22;30135;47.866;-4.222;2022-09-20T15:53:58;20.30;59.90
44431;DHT22;30135;47.866;-4.222;2022-09-20T15:56:28;20.40;60.00
44431;DHT22;30135;47.866;-4.222;2022-09-20T15:58:57;20.40;60.00
44431;DHT22;30135;47.866;-4.222;2022-09-20T16:01:30;20.40;60.10
44431;DHT22;30135;47.866;-4.222;2022-09-20T16:03:58;20.50;60.30
44431;DHT22;30135;47.866;-4.222;2022-09-20T16:06:25;20.40;60.50
44431;DHT22;30135;47.866;-4.222;2022-09-20T16:08:51;20.40;60.50
44431;DHT22;30135;47.866;-4.222;2022-09-20T16:11:19;20.40;60.80
44431;DHT22;30135;47.866;-4.222;2022-09-20T16:13:51;20.40;60.80
44431;DHT22;30135;47.866;-4.222;2022-09-20T16:16:17;20.40;60.90
44431;DHT22;30135;47.866;-4.222;2022-09-20T16:18:43;20.40;60.80
44431;DHT22;30135;47.866;-4.222;2022-09-20T16:21:28;20.40;60.90
44431;DHT22;30135;47.866;-4.222;2022-09-20T16:23:55;20.40;61.10
44431;DHT22;30135;47.866;-4.222;2022-09-20T16:26:23;20.40;61.10
44431;DHT22;30135;47.866;-4.222;2022-09-20T16:28:52;20.30;61.10
44431;DHT22;30135;47.866;-4.222;2022-09-20T16:31:40;20.30;61.30
44431;DHT22;30135;47.866;-4.222;2022-09-20T16:34:21;20.30;61.60
44431;DHT22;30135;47.866;-4.222;2022-09-20T16:37:00;20.30;61.60
44431;DHT22;30135;47.866;-4.222;2022-09-20T16:39:30;20.30;61.80
44431;DHT22;30135;47.866;-4.222;2022-09-20T16:42:01;20.30;62.00
44431;DHT22;30135;47.866;-4.222;2022-09-20T16:44:33;20.20;61.90
44431;DHT22;30135;47.866;-4.222;2022-09-20T16:47:01;20.20;62.20
44431;DHT22;30135;47.866;-4.222;2022-09-20T16:49:27;20.20;62.50
44431;DHT22;30135;47.866;-4.222;2022-09-20T16:51:54;20.20;62.50
44431;DHT22;30135;47.866;-4.222;2022-09-20T16:54:20;20.20;62.60
44431;DHT22;30135;47.866;-4.222;2022-09-20T16:56:48;20.10;62.60
44431;DHT22;30135;47.866;-4.222;2022-09-20T16:59:17;20.10;62.70
44431;DHT22;30135;47.866;-4.222;2022-09-20T17:01:45;20.10;62.80
44431;DHT22;30135;47.866;-4.222;2022-09-20T17:04:13;20.00;62.80
44431;DHT22;30135;47.866;-4.222;2022-09-20T17:06:43;20.00;63.00
44431;DHT22;30135;47.866;-4.222;2022-09-20T17:09:10;19.90;64.00
44431;DHT22;30135;47.866;-4.222;2022-09-20T17:11:40;19.90;63.30
44431;DHT22;30135;47.866;-4.222;2022-09-20T17:14:10;19.90;63.50
44431;DHT22;30135;47.866;-4.222;2022-09-20T17:16:38;19.80;63.50
44431;DHT22;30135;47.866;-4.222;2022-09-20T17:19:07;19.70;63.60
44431;DHT22;30135;47.866;-4.222;2022-09-20T17:21:37;19.70;63.80
44431;DHT22;30135;47.866;-4.222;2022-09-20T17:24:05;19.70;63.90
44431;DHT22;30135;47.866;-4.222;2022-09-20T17:26:34;19.70;64.00
44431;DHT22;30135;47.866;-4.222;2022-09-20T17:29:04;19.70;64.20
44431;DHT22;30135;47.866;-4.222;2022-09-20T17:31:36;19.60;64.20
44431;DHT22;30135;47.866;-4.222;2022-09-20T17:34:05;19.50;64.40
44431;DHT22;30135;47.866;-4.222;2022-09-20T17:36:38;19.50;64.50
44431;DHT22;30135;47.866;-4.222;2022-09-20T17:39:06;19.50;64.70
44431;DHT22;30135;47.866;-4.222;2022-09-20T17:41:38;19.40;64.90
44431;DHT22;30135;47.866;-4.222;2022-09-20T17:44:06;19.40;65.10
44431;DHT22;30135;47.866;-4.222;2022-09-20T17:46:38;19.30;65.20
44431;DHT22;30135;47.866;-4.222;2022-09-20T17:49:07;19.30;65.40
44431;DHT22;30135;47.866;-4.222;2022-09-20T17:54:05;19.20;65.60
44431;DHT22;30135;47.866;-4.222;2022-09-20T17:56:32;19.20;65.90
44431;DHT22;30135;47.866;-4.222;2022-09-20T17:59:04;19.20;66.00
44431;DHT22;30135;47.866;-4.222;2022-09-20T18:01:32;19.20;66.20
44431;DHT22;30135;47.866;-4.222;2022-09-20T18:04:00;19.10;66.30
44431;DHT22;30135;47.866;-4.222;2022-09-20T18:06:28;19.10;66.50
44431;DHT22;30135;47.866;-4.222;2022-09-20T18:09:05;19.00;66.60
44431;DHT22;30135;47.866;-4.222;2022-09-20T18:11:35;19.00;66.80
44431;DHT22;30135;47.866;-4.222;2022-09-20T18:14:09;19.00;67.10
44431;DHT22;30135;47.866;-4.222;2022-09-20T18:16:36;19.00;67.30
44431;DHT22;30135;47.866;-4.222;2022-09-20T18:19:05;18.90;67.50
44431;DHT22;30135;47.866;-4.222;2022-09-20T18:21:33;18.90;67.70
44431;DHT22;30135;47.866;-4.222;2022-09-20T18:24:03;18.90;67.90
44431;DHT22;30135;47.866;-4.222;2022-09-20T18:26:30;18.80;68.00
44431;DHT22;30135;47.866;-4.222;2022-09-20T18:31:39;18.80;68.60
44431;DHT22;30135;47.866;-4.222;2022-09-20T18:34:15;18.70;68.70
44431;DHT22;30135;47.866;-4.222;2022-09-20T18:36:48;18.70;68.90
44431;DHT22;30135;47.866;-4.222;2022-09-20T18:39:32;18.60;69.00
44431;DHT22;30135;47.866;-4.222;2022-09-20T18:41:59;18.60;69.50
44431;DHT22;30135;47.866;-4.222;2022-09-20T18:44:27;18.60;69.50
44431;DHT22;30135;47.866;-4.222;2022-09-20T18:46:58;18.50;69.60
44431;DHT22;30135;47.866;-4.222;2022-09-20T18:49:25;18.50;69.90
44431;DHT22;30135;47.866;-4.222;2022-09-20T18:51:51;18.50;70.00
44431;DHT22;30135;47.866;-4.222;2022-09-20T18:54:17;18.40;70.10
44431;DHT22;30135;47.866;-4.222;2022-09-20T18:56:48;18.40;70.30
44431;DHT22;30135;47.866;-4.222;2022-09-20T18:59:20;18.40;70.50
44431;DHT22;30135;47.866;-4.222;2022-09-20T19:07:56;18.30;71.20
44431;DHT22;30135;47.866;-4.222;2022-09-20T19:13:39;18.20;71.20
44431;DHT22;30135;47.866;-4.222;2022-09-20T19:27:26;18.10;72.00
44431;DHT22;30135;47.866;-4.222;2022-09-20T19:29:52;18.00;71.90
44431;DHT22;30135;47.866;-4.222;2022-09-20T19:32:19;18.00;72.10
44431;DHT22;30135;47.866;-4.222;2022-09-20T19:34:54;17.90;72.10
44431;DHT22;30135;47.866;-4.222;2022-09-20T19:37:32;17.90;72.30
44431;DHT22;30135;47.866;-4.222;2022-09-20T19:48:50;17.80;73.00
44431;DHT22;30135;47.866;-4.222;2022-09-20T19:51:22;17.70;73.00
44431;DHT22;30135;47.866;-4.222;2022-09-20T19:53:49;17.70;73.00
44431;DHT22;30135;47.866;-4.222;2022-09-20T19:56:27;17.60;73.10
44431;DHT22;30135;47.866;-4.222;2022-09-20T19:59:07;17.60;73.20
44431;DHT22;30135;47.866;-4.222;2022-09-20T20:01:33;17.60;73.30
44431;DHT22;30135;47.866;-4.222;2022-09-20T20:04:00;17.60;73.40
44431;DHT22;30135;47.866;-4.222;2022-09-20T20:06:33;17.50;73.50
44431;DHT22;30135;47.866;-4.222;2022-09-20T20:09:19;17.50;73.60
44431;DHT22;30135;47.866;-4.222;2022-09-20T20:12:14;17.50;73.70
44431;DHT22;30135;47.866;-4.222;2022-09-20T20:15:00;17.40;74.00
44431;DHT22;30135;47.866;-4.222;2022-09-20T20:20:44;17.30;74.00
44431;DHT22;30135;47.866;-4.222;2022-09-20T20:26:25;17.20;74.10
44431;DHT22;30135;47.866;-4.222;2022-09-20T20:28:52;17.20;74.30
44431;DHT22;30135;47.866;-4.222;2022-09-20T20:31:19;17.10;74.20
44431;DHT22;30135;47.866;-4.222;2022-09-20T20:33:46;17.10;74.30
44431;DHT22;30135;47.866;-4.222;2022-09-20T20:36:13;17.10;74.50
44431;DHT22;30135;47.866;-4.222;2022-09-20T20:38:41;17.10;74.50
44431;DHT22;30135;47.866;-4.222;2022-09-20T20:41:16;17.10;74.60
44431;DHT22;30135;47.866;-4.222;2022-09-20T20:43:44;17.00;75.40
44431;DHT22;30135;47.866;-4.222;2022-09-20T20:46:14;17.00;74.80
44431;DHT22;30135;47.866;-4.222;2022-09-20T20:48:43;16.90;74.80
44431;DHT22;30135;47.866;-4.222;2022-09-20T20:51:13;16.90;74.80
44431;DHT22;30135;47.866;-4.222;2022-09-20T20:53:49;16.90;75.70
44431;DHT22;30135;47.866;-4.222;2022-09-20T20:56:28;16.90;75.00
44431;DHT22;30135;47.866;-4.222;2022-09-20T20:58:57;16.80;75.10
44431;DHT22;30135;47.866;-4.222;2022-09-20T21:01:28;16.90;75.20
44431;DHT22;30135;47.866;-4.222;2022-09-20T21:03:56;16.80;75.30
44431;DHT22;30135;47.866;-4.222;2022-09-20T21:06:26;16.80;75.30
44431;DHT22;30135;47.866;-4.222;2022-09-20T21:08:54;16.80;75.30
44431;DHT22;30135;47.866;-4.222;2022-09-20T21:11:26;16.70;75.30
44431;DHT22;30135;47.866;-4.222;2022-09-20T21:13:55;16.80;75.50
44431;DHT22;30135;47.866;-4.222;2022-09-20T21:16:30;16.70;75.50
44431;DHT22;30135;47.866;-4.222;2022-09-20T21:18:59;16.80;75.70
44431;DHT22;30135;47.866;-4.222;2022-09-20T21:21:27;16.70;75.70
44431;DHT22;30135;47.866;-4.222;2022-09-20T21:23:59;16.70;75.70
44431;DHT22;30135;47.866;-4.222;2022-09-20T21:26:30;16.70;75.80
44431;DHT22;30135;47.866;-4.222;2022-09-20T21:28:58;16.70;75.80
44431;DHT22;30135;47.866;-4.222;2022-09-20T21:31:27;16.70;76.00
44431;DHT22;30135;47.866;-4.222;2022-09-20T21:33:55;16.70;76.00
44431;DHT22;30135;47.866;-4.222;2022-09-20T21:36:23;16.70;76.10